Time;durP1;ratioP1;P1;durP2;ratioP2;P2;SDS_P1;SDS_P2;PMS_P1;PMS_P2;Temp;Humidity;BMP_temperature;BMP_pressure;BME280_temperature;BME280_humidity;BME280_pressure;Samples;Min_cycle;Max_cycle;Signal;HPM_P1;HPM_P2
2023/09/08 00:03:45;;;;;;;5.80;5.28;;;23.00;72.60;;;;;;10369051;28;20026;-58
2023/09/08 00:08:46;;;;;;;6.32;5.72;;;23.00;72.70;;;;;;10369487;28;20087;-58
2023/09/08 00:13:46;;;;;;;5.78;5.22;;;23.00;72.70;;;;;;10368715;28;20054;-58
2023/09/08 00:18:47;;;;;;;6.72;5.65;;;22.90;72.60;;;;;;10380401;28;20026;-58
2023/09/08 00:23:48;;;;;;;6.47;5.88;;;22.90;72.60;;;;;;10368162;28;20026;-58
2023/09/08 00:28:49;;;;;;;5.75;5.15;;;23.00;72.60;;;;;;10387677;28;20044;-58
2023/09/08 00:33:49;;;;;;;6.15;5.05;;;22.90;72.60;;;;;;10368401;28;20026;-58
2023/09/08 00:38:50;;;;;;;6.13;5.53;;;22.90;72.60;;;;;;10368321;28;20076;-58
2023/09/08 00:43:51;;;;;;;5.07;4.55;;;22.90;72.60;;;;;;10367933;28;20029;-58
2023/09/08 00:48:51;;;;;;;5.32;4.82;;;22.90;72.60;;;;;;10367851;28;20080;-58
2023/09/08 00:53:52;;;;;;;6.70;5.53;;;22.90;72.60;;;;;;10393820;28;20446;-58
2023/09/08 00:58:53;;;;;;;6.03;5.43;;;22.90;72.60;;;;;;10408467;28;20100;-58
2023/09/08 01:03:54;;;;;;;6.07;5.47;;;22.90;72.60;;;;;;10408122;28;20138;-58
2023/09/08 01:08:56;;;;;;;5.47;4.95;;;22.90;72.60;;;;;;10408204;28;20029;-59
2023/09/08 01:13:56;;;;;;;5.82;5.32;;;22.90;72.60;;;;;;10411588;28;20555;-58
2023/09/08 01:18:58;;;;;;;5.55;5.05;;;22.90;72.60;;;;;;10416365;28;20029;-58
2023/09/08 01:24:56;;;;;;;6.20;5.30;;;22.90;72.60;;;;;;10396768;28;20044;-58
2023/09/08 01:29:59;;;;;;;5.72;5.13;;;22.90;72.60;;;;;;10406225;28;20041;-58
2023/09/08 01:35:00;;;;;;;5.85;5.10;;;22.90;72.60;;;;;;10374648;28;20445;-58
2023/09/08 01:40:01;;;;;;;5.55;4.93;;;22.90;72.50;;;;;;10375023;28;20030;-58
2023/09/08 01:45:02;;;;;;;5.78;5.18;;;22.80;72.50;;;;;;10374751;28;20026;-58
2023/09/08 01:50:03;;;;;;;5.60;5.10;;;22.80;72.50;;;;;;10374332;28;20408;-58
2023/09/08 01:55:05;;;;;;;5.47;4.57;;;22.80;72.40;;;;;;10373996;28;20377;-58
2023/09/08 02:00:06;;;;;;;4.82;4.32;;;22.80;72.40;;;;;;10389289;28;20034;-58
2023/09/08 02:05:08;;;;;;;5.43;4.93;;;22.80;72.40;;;;;;10397489;28;20642;-58
2023/09/08 02:10:10;;;;;;;5.63;5.13;;;22.80;72.40;;;;;;10414541;28;20036;-58
2023/09/08 02:15:11;;;;;;;5.28;4.72;;;22.80;72.40;;;;;;10414498;28;20049;-58
2023/09/08 02:20:12;;;;;;;5.35;4.85;;;22.80;72.30;;;;;;10414744;28;20030;-58
2023/09/08 02:25:13;;;;;;;5.72;5.20;;;22.80;72.40;;;;;;10381427;28;20029;-58
2023/09/08 02:30:15;;;;;;;5.55;5.03;;;22.80;72.30;;;;;;10403257;28;20034;-58
2023/09/08 02:35:15;;;;;;;6.88;4.97;;;22.80;72.30;;;;;;10374200;28;20430;-58
2023/09/08 02:40:17;;;;;;;6.57;5.53;;;22.80;72.30;;;;;;10371994;28;20049;-60
2023/09/08 02:45:17;;;;;;;5.35;4.85;;;22.80;72.30;;;;;;10372240;28;20026;-58
2023/09/08 02:50:18;;;;;;;5.45;4.95;;;22.80;72.30;;;;;;10392111;28;20041;-58
2023/09/08 02:55:19;;;;;;;5.88;5.22;;;22.80;72.90;;;;;;10381487;28;20041;-58
2023/09/08 03:00:20;;;;;;;5.40;4.90;;;22.70;72.20;;;;;;10371736;28;20033;-58
2023/09/08 03:05:21;;;;;;;5.78;5.22;;;22.70;72.10;;;;;;10371091;28;20564;-57
2023/09/08 03:10:21;;;;;;;4.85;4.40;;;22.70;72.10;;;;;;10371432;28;20057;-57
2023/09/08 03:15:22;;;;;;;5.20;4.20;;;22.70;72.10;;;;;;10370485;28;20054;-58
2023/09/08 03:20:23;;;;;;;5.80;5.20;;;22.70;72.10;;;;;;10371361;28;20048;-58
2023/09/08 03:25:24;;;;;;;5.45;4.82;;;22.70;72.10;;;;;;10370700;28;20034;-58
2023/09/08 03:30:24;;;;;;;5.13;4.63;;;22.70;72.10;;;;;;10389723;28;20098;-58
2023/09/08 03:35:25;;;;;;;5.40;4.90;;;22.70;72.10;;;;;;10398492;28;20516;-58
2023/09/08 03:40:26;;;;;;;6.28;5.05;;;22.70;72.00;;;;;;10411117;28;20038;-58
2023/09/08 03:45:26;;;;;;;6.70;5.50;;;22.70;72.00;;;;;;10410956;28;20017;-58
2023/09/08 03:50:27;;;;;;;5.72;5.22;;;22.70;72.00;;;;;;10411021;28;20468;-58
2023/09/08 03:55:28;;;;;;;5.15;4.65;;;22.60;72.00;;;;;;10409039;28;20056;-58
2023/09/08 04:00:29;;;;;;;5.53;5.03;;;22.60;72.00;;;;;;10410406;28;20037;-58
2023/09/08 04:05:30;;;;;;;5.45;4.95;;;22.60;72.00;;;;;;10384439;28;20467;-58
2023/09/08 04:10:30;;;;;;;5.20;4.70;;;22.60;71.90;;;;;;10385068;28;20045;-58
2023/09/08 04:15:31;;;;;;;6.07;5.47;;;22.60;71.90;;;;;;10392451;28;20057;-58
2023/09/08 04:20:32;;;;;;;5.65;4.95;;;22.60;72.00;;;;;;10384659;28;20038;-59
2023/09/08 04:25:32;;;;;;;5.40;4.90;;;22.60;71.90;;;;;;10379713;28;20040;-58
2023/09/08 04:30:33;;;;;;;5.85;5.13;;;22.60;71.90;;;;;;10386457;28;20033;-58
2023/09/08 04:35:34;;;;;;;5.03;4.63;;;22.60;71.90;;;;;;10383943;28;20044;-57
2023/09/08 04:40:35;;;;;;;5.53;4.90;;;22.60;71.90;;;;;;10383954;28;20057;-57
2023/09/08 04:45:35;;;;;;;5.72;5.20;;;22.60;71.90;;;;;;10380889;28;20580;-57
2023/09/08 04:50:36;;;;;;;5.30;4.80;;;22.60;71.90;;;;;;10379362;28;20048;-58
2023/09/08 04:55:37;;;;;;;6.53;5.45;;;22.60;71.80;;;;;;10384366;28;20429;-58
2023/09/08 05:00:39;;;;;;;7.00;4.68;;;22.60;72.00;;;;;;10389100;28;20679;-57
2023/09/08 05:05:40;;;;;;;10.90;5.15;;;22.70;71.80;;;;;;10408546;28;20033;-60
2023/09/08 05:10:43;;;;;;;6.03;4.35;;;22.70;72.30;;;;;;10395653;28;20066;-58
2023/09/08 05:15:48;;;;;;;8.00;5.53;;;22.70;71.10;;;;;;10380601;28;20053;-58
2023/09/08 05:20:49;;;;;;;14.98;6.40;;;22.80;71.70;;;;;;10375377;28;20597;-59
2023/09/08 05:25:49;;;;;;;10.43;5.32;;;22.90;72.20;;;;;;10367090;28;20096;-58
2023/09/08 05:30:55;;;;;;;14.35;6.30;;;23.00;72.10;;;;;;10386815;28;20030;-57
2023/09/08 05:35:56;;;;;;;16.23;6.80;;;23.00;72.10;;;;;;10367162;28;20033;-58
2023/09/08 05:40:57;;;;;;;11.70;5.50;;;22.90;72.20;;;;;;10374005;28;20041;-57
2023/09/08 05:45:57;;;;;;;17.73;5.88;;;22.90;72.10;;;;;;10380627;28;20381;-59
2023/09/08 05:50:58;;;;;;;12.65;6.20;;;22.90;71.90;;;;;;10367190;28;20030;-58
2023/09/08 05:55:59;;;;;;;15.35;6.28;;;22.90;72.60;;;;;;10356480;28;20065;-58
2023/09/08 06:01:03;;;;;;;10.88;6.10;;;23.00;71.80;;;;;;10389825;28;20482;-58
2023/09/08 06:06:04;;;;;;;8.77;5.65;;;23.00;72.50;;;;;;10391302;28;20104;-58
2023/09/08 06:11:05;;;;;;;12.77;5.15;;;23.00;72.40;;;;;;10386655;28;20075;-58
2023/09/08 06:16:06;;;;;;;14.02;5.72;;;22.80;72.00;;;;;;10387603;28;20053;-58
2023/09/08 06:21:07;;;;;;;12.35;6.15;;;22.90;72.20;;;;;;10413432;28;20021;-57
2023/09/08 06:26:08;;;;;;;10.10;6.60;;;22.80;72.30;;;;;;10391439;28;20029;-58
2023/09/08 06:31:09;;;;;;;7.95;6.07;;;22.80;72.30;;;;;;10399418;28;20030;-57
2023/09/08 06:36:09;;;;;;;7.00;4.95;;;22.70;72.20;;;;;;10372237;28;20081;-57
2023/09/08 06:41:11;;;;;;;8.15;5.25;;;22.70;72.40;;;;;;10385722;28;20072;-57
2023/09/08 06:46:12;;;;;;;8.52;5.50;;;22.70;72.70;;;;;;10382493;28;20022;-57
2023/09/08 06:51:12;;;;;;;6.32;5.68;;;22.70;72.60;;;;;;10372265;28;20030;-57
2023/09/08 06:56:13;;;;;;;8.90;5.30;;;22.70;72.50;;;;;;10371473;28;20049;-58
2023/09/08 07:01:14;;;;;;;6.93;5.07;;;22.70;72.50;;;;;;10371141;28;20038;-57
2023/09/08 07:06:15;;;;;;;6.72;5.18;;;22.70;72.50;;;;;;10370602;28;20571;-57
2023/09/08 07:11:16;;;;;;;7.07;5.25;;;22.70;72.50;;;;;;10370118;28;20025;-58
2023/09/08 07:16:17;;;;;;;8.95;5.55;;;22.70;72.50;;;;;;10386501;28;20049;-58
2023/09/08 07:21:18;;;;;;;7.22;5.80;;;22.70;72.50;;;;;;10410168;28;20030;-57
2023/09/08 07:26:19;;;;;;;9.23;5.93;;;22.70;72.50;;;;;;10374008;28;20669;-57
2023/09/08 07:31:20;;;;;;;7.97;5.15;;;22.70;72.50;;;;;;10388545;28;20034;-57
2023/09/08 07:36:21;;;;;;;7.15;5.60;;;22.70;72.50;;;;;;10369061;28;20034;-57
2023/09/08 07:41:21;;;;;;;5.82;5.18;;;22.70;72.30;;;;;;10369680;28;20030;-58
2023/09/08 07:46:22;;;;;;;9.75;5.82;;;22.70;72.30;;;;;;10368937;28;20022;-57
2023/09/08 07:51:23;;;;;;;9.52;5.55;;;22.70;72.10;;;;;;10369313;28;20045;-58
2023/09/08 07:56:24;;;;;;;6.47;4.78;;;22.70;72.00;;;;;;10368968;28;20042;-57
2023/09/08 08:01:24;;;;;;;7.43;6.57;;;22.70;72.00;;;;;;10368812;28;20038;-58
2023/09/08 08:06:26;;;;;;;8.85;6.82;;;22.70;72.10;;;;;;10368220;28;20097;-58
2023/09/08 08:11:27;;;;;;;7.38;6.40;;;22.70;72.00;;;;;;10390763;28;20025;-57
2023/09/08 08:16:28;;;;;;;11.82;6.20;;;22.70;72.00;;;;;;10408331;28;20128;-56
2023/09/08 08:21:29;;;;;;;7.72;5.47;;;22.80;72.00;;;;;;10406893;28;20026;-57
2023/09/08 08:26:32;;;;;;;8.43;5.65;;;22.80;72.00;;;;;;10367591;28;20026;-58
2023/09/08 08:31:33;;;;;;;8.82;6.28;;;22.80;72.00;;;;;;10386715;28;20384;-58
2023/09/08 08:36:34;;;;;;;8.70;6.72;;;22.80;72.10;;;;;;10366632;28;20034;-56
2023/09/08 08:41:37;;;;;;;7.68;5.95;;;22.90;72.10;;;;;;10367325;28;20477;-57
2023/09/08 08:46:40;;;;;;;7.10;5.68;;;22.90;72.10;;;;;;10366176;28;20053;-57
2023/09/08 08:51:45;;;;;;;8.18;6.95;;;22.90;72.10;;;;;;10384849;28;20084;-57
2023/09/08 08:56:46;;;;;;;7.35;6.35;;;22.90;72.10;;;;;;10392053;28;20041;-57
2023/09/08 09:01:48;;;;;;;8.63;6.63;;;22.90;72.10;;;;;;10389982;28;20136;-57
2023/09/08 09:06:48;;;;;;;7.70;5.93;;;23.00;72.20;;;;;;10392642;28;20546;-57
2023/09/08 09:11:50;;;;;;;8.48;6.07;;;23.00;72.20;;;;;;10407620;28;20021;-57
2023/09/08 09:16:51;;;;;;;7.15;6.13;;;23.00;72.20;;;;;;10406805;28;20096;-57
2023/09/08 09:21:54;;;;;;;9.00;7.15;;;23.00;72.20;;;;;;10402071;28;20128;-56
2023/09/08 09:26:56;;;;;;;7.85;5.30;;;23.00;72.20;;;;;;10366017;28;20057;-57
2023/09/08 09:32:05;;;;;;;8.07;5.93;;;23.10;72.20;;;;;;10385221;28;20139;-56
2023/09/08 09:37:06;;;;;;;8.63;5.88;;;23.00;72.10;;;;;;10372552;28;20030;-57
2023/09/08 09:42:07;;;;;;;7.72;5.70;;;23.10;72.20;;;;;;10374010;28;20517;-56
2023/09/08 09:47:09;;;;;;;6.35;5.60;;;23.10;72.20;;;;;;10374106;28;20068;-57
2023/09/08 09:52:13;;;;;;;6.78;5.35;;;23.10;72.20;;;;;;10373836;28;20033;-57
2023/09/08 09:57:14;;;;;;;5.95;5.28;;;23.10;72.20;;;;;;10373090;28;20701;-57
2023/09/08 10:02:16;;;;;;;6.75;5.93;;;23.20;72.30;;;;;;10373496;28;20038;-57
2023/09/08 10:07:18;;;;;;;7.82;5.80;;;23.20;72.20;;;;;;10407043;28;20057;-58
2023/09/08 10:12:19;;;;;;;6.90;6.03;;;23.20;72.30;;;;;;10414225;28;20036;-60
2023/09/08 10:17:28;;;;;;;7.25;6.55;;;23.30;72.30;;;;;;10387495;28;20048;-60
2023/09/08 10:22:32;;;;;;;7.72;5.82;;;23.30;72.30;;;;;;10389916;28;20030;-61
2023/09/08 10:27:33;;;;;;;10.07;6.15;;;23.40;72.40;;;;;;10372369;28;20117;-61
2023/09/08 10:32:36;;;;;;;8.15;6.28;;;23.40;72.50;;;;;;10390700;28;20080;-59
2023/09/08 10:37:40;;;;;;;7.93;6.72;;;23.40;72.60;;;;;;10395516;28;20034;-59
2023/09/08 10:42:41;;;;;;;14.25;7.25;;;23.50;72.70;;;;;;10404876;28;20037;-59
2023/09/08 10:47:55;;;;;;;8.68;6.45;;;23.50;72.60;;;;;;10413171;28;20045;-59
2023/09/08 10:53:15;;;;;;;8.73;6.03;;;23.60;72.60;;;;;;10412063;28;20037;-59
2023/09/08 10:58:28;;;;;;;10.43;6.00;;;23.60;72.60;;;;;;10374245;28;20038;-59
2023/09/08 11:03:44;;;;;;;10.32;7.15;;;23.60;72.60;;;;;;10381474;28;20099;-60
2023/09/08 11:08:46;;;;;;;7.53;6.68;;;23.60;72.60;;;;;;10396551;28;20030;-60
2023/09/08 11:13:47;;;;;;;10.43;6.90;;;23.70;72.60;;;;;;10381536;28;20050;-59
2023/09/08 11:18:50;;;;;;;10.10;6.85;;;23.70;72.60;;;;;;10396736;28;20034;-59
2023/09/08 11:23:51;;;;;;;7.13;5.88;;;23.70;72.80;;;;;;10383161;28;20053;-59
2023/09/08 11:28:53;;;;;;;7.85;6.97;;;23.70;72.80;;;;;;10388332;28;20021;-59
2023/09/08 11:33:59;;;;;;;9.52;6.72;;;23.70;72.70;;;;;;10385338;28;20086;-59
2023/09/08 11:39:00;;;;;;;11.30;7.00;;;23.70;72.80;;;;;;10369706;28;20030;-59
2023/09/08 11:44:00;;;;;;;9.05;7.20;;;23.80;72.80;;;;;;10369519;28;20029;-58
2023/09/08 11:49:03;;;;;;;7.82;6.13;;;23.70;72.80;;;;;;10369154;28;20397;-58
2023/09/08 11:54:04;;;;;;;9.50;7.28;;;23.80;72.80;;;;;;10398005;28;20041;-57
2023/09/08 11:59:05;;;;;;;8.07;6.95;;;23.80;72.80;;;;;;10408785;28;20025;-58
2023/09/08 12:04:06;;;;;;;7.40;6.60;;;23.70;72.70;;;;;;10409605;28;20342;-58
2023/09/08 12:09:07;;;;;;;7.53;6.78;;;23.80;72.90;;;;;;10395905;28;20325;-58
2023/09/08 12:14:13;;;;;;;8.38;7.13;;;23.80;72.90;;;;;;10394092;28;20111;-58
2023/09/08 12:19:31;;;;;;;7.93;6.47;;;23.80;72.90;;;;;;10394276;28;20029;-58
2023/09/08 12:24:54;;;;;;;8.90;7.05;;;23.80;73.00;;;;;;10382606;28;20033;-58
2023/09/08 12:30:00;;;;;;;9.57;7.82;;;23.80;73.10;;;;;;10386627;28;20038;-59
2023/09/08 12:35:04;;;;;;;8.45;6.57;;;23.80;73.00;;;;;;10367744;28;20044;-59
2023/09/08 12:40:05;;;;;;;8.98;7.18;;;23.80;72.70;;;;;;10393021;28;20072;-59
2023/09/08 12:45:07;;;;;;;8.82;7.15;;;23.80;72.70;;;;;;10407619;28;20053;-58
2023/09/08 12:50:09;;;;;;;8.43;7.38;;;23.80;72.60;;;;;;10407851;28;20038;-58
2023/09/08 12:55:10;;;;;;;9.85;6.93;;;23.80;72.50;;;;;;10408354;28;20065;-60
2023/09/08 13:00:12;;;;;;;11.55;7.63;;;23.80;72.70;;;;;;10407742;28;20061;-59
2023/09/08 13:05:13;;;;;;;9.50;7.50;;;23.80;72.80;;;;;;10405715;28;20118;-58
2023/09/08 13:10:13;;;;;;;8.85;7.78;;;23.80;72.90;;;;;;10383841;28;20406;-58
2023/09/08 13:15:14;;;;;;;9.30;7.93;;;23.80;72.80;;;;;;10391417;28;20048;-60
2023/09/08 13:20:15;;;;;;;12.65;7.95;;;23.80;72.80;;;;;;10391148;28;20025;-60
2023/09/08 13:25:16;;;;;;;11.45;7.35;;;23.90;72.70;;;;;;10392914;28;20021;-61
2023/09/08 13:30:17;;;;;;;9.65;6.97;;;23.90;72.60;;;;;;10394066;28;20112;-60
2023/09/08 13:35:17;;;;;;;8.05;6.88;;;23.80;72.80;;;;;;10391140;28;20026;-60
2023/09/08 13:40:18;;;;;;;7.88;7.07;;;23.80;72.90;;;;;;10389292;28;20025;-60
2023/09/08 13:45:19;;;;;;;6.93;6.30;;;23.80;72.90;;;;;;10392134;28;20025;-60
2023/09/08 13:50:20;;;;;;;7.95;7.15;;;23.80;72.80;;;;;;10389887;28;20057;-60
2023/09/08 13:55:23;;;;;;;7.38;6.55;;;23.70;72.80;;;;;;10389386;28;20041;-60
2023/09/08 14:00:24;;;;;;;8.15;7.05;;;23.70;72.80;;;;;;10383495;28;20037;-59
2023/09/08 14:05:25;;;;;;;8.18;7.38;;;23.80;72.90;;;;;;10386683;28;20512;-60
2023/09/08 14:10:26;;;;;;;9.57;7.82;;;23.80;72.80;;;;;;10378355;28;20080;-59
2023/09/08 14:15:26;;;;;;;8.85;7.05;;;23.80;72.70;;;;;;10395385;28;20053;-59
2023/09/08 14:20:27;;;;;;;8.63;6.95;;;23.80;73.10;;;;;;10394527;28;20099;-59
2023/09/08 14:25:28;;;;;;;8.20;6.55;;;23.80;73.10;;;;;;10389484;28;20044;-60
2023/09/08 14:30:30;;;;;;;8.75;7.70;;;23.80;73.40;;;;;;10385900;28;20037;-60
2023/09/08 14:35:30;;;;;;;9.70;7.50;;;23.80;73.10;;;;;;10401924;28;20041;-58
2023/09/08 14:40:31;;;;;;;13.25;7.60;;;23.90;73.50;;;;;;10382427;28;20056;-60
2023/09/08 14:45:32;;;;;;;11.63;8.05;;;23.80;73.90;;;;;;10385200;28;20021;-59
2023/09/08 14:50:33;;;;;;;18.80;9.43;;;23.90;73.40;;;;;;10371662;28;20033;-60
2023/09/08 14:55:35;;;;;;;22.65;9.63;;;23.90;73.60;;;;;;10371379;28;20058;-60
2023/09/08 15:00:35;;;;;;;12.32;8.13;;;23.90;73.50;;;;;;10371037;28;20092;-60
2023/09/08 15:05:36;;;;;;;18.52;9.35;;;23.90;73.30;;;;;;10390800;28;20444;-59
2023/09/08 15:10:37;;;;;;;14.40;9.30;;;23.90;73.30;;;;;;10384622;28;20026;-58
2023/09/08 15:15:38;;;;;;;12.85;8.50;;;24.00;74.00;;;;;;10382067;28;20056;-59
2023/09/08 15:20:40;;;;;;;11.93;7.68;;;24.00;73.20;;;;;;10403684;28;20478;-59
2023/09/08 15:25:41;;;;;;;10.88;8.40;;;23.90;73.10;;;;;;10370039;28;20065;-59
2023/09/08 15:30:48;;;;;;;11.95;8.38;;;23.90;73.10;;;;;;10391615;28;20037;-59
2023/09/08 15:35:51;;;;;;;10.77;8.68;;;23.90;73.10;;;;;;10369230;28;20038;-59
2023/09/08 15:41:18;;;;;;;11.32;8.15;;;23.90;73.20;;;;;;10369243;28;20113;-59
2023/09/08 15:46:19;;;;;;;10.07;9.00;;;23.90;73.20;;;;;;10378228;28;20033;-59
2023/09/08 15:51:20;;;;;;;9.45;8.45;;;23.90;74.20;;;;;;10369364;28;20034;-60
2023/09/08 15:56:21;;;;;;;11.50;8.13;;;23.90;73.10;;;;;;10368350;28;20038;-58
2023/09/08 16:01:22;;;;;;;12.65;8.73;;;23.90;72.90;;;;;;10369050;28;20042;-58
2023/09/08 16:06:24;;;;;;;11.85;8.25;;;23.90;73.60;;;;;;10384124;28;20041;-60
2023/09/08 16:11:24;;;;;;;11.88;8.07;;;24.00;73.60;;;;;;10386589;28;20506;-58
2023/09/08 16:16:25;;;;;;;12.00;9.13;;;23.90;73.10;;;;;;10408435;28;20041;-58
2023/09/08 16:21:26;;;;;;;12.93;8.45;;;23.90;74.10;;;;;;10377339;28;20057;-58
2023/09/08 16:26:27;;;;;;;13.02;8.65;;;24.00;74.90;;;;;;10368759;28;20366;-58
2023/09/08 16:31:27;;;;;;;19.80;7.95;;;23.90;73.80;;;;;;10386967;28;20026;-58
2023/09/08 16:36:29;;;;;;;10.88;8.07;;;23.90;73.80;;;;;;10367108;28;20053;-58
2023/09/08 16:41:30;;;;;;;10.10;7.60;;;23.80;74.00;;;;;;10367749;28;20044;-58
2023/09/08 16:46:31;;;;;;;12.25;8.23;;;23.80;74.20;;;;;;10366724;28;20537;-58
2023/09/08 16:51:31;;;;;;;12.25;8.70;;;23.80;74.20;;;;;;10394503;28;20032;-57
2023/09/08 16:56:32;;;;;;;8.95;7.53;;;23.80;74.30;;;;;;10407824;28;20030;-58
2023/09/08 17:01:33;;;;;;;10.98;7.50;;;23.80;74.20;;;;;;10408331;28;20532;-58
2023/09/08 17:06:34;;;;;;;8.02;7.28;;;23.70;74.30;;;;;;10406986;28;20025;-57
2023/09/08 17:11:38;;;;;;;7.95;7.13;;;23.70;74.30;;;;;;10386555;28;20469;-60
2023/09/08 17:16:38;;;;;;;8.40;7.50;;;23.70;74.30;;;;;;10394748;28;20056;-58
2023/09/08 17:21:39;;;;;;;8.48;7.57;;;23.70;74.30;;;;;;10375229;28;20511;-60
2023/09/08 17:26:40;;;;;;;11.05;7.90;;;23.70;74.30;;;;;;10388705;28;20026;-57
2023/09/08 17:31:40;;;;;;;10.20;8.35;;;23.80;75.90;;;;;;10388819;28;20865;-57
2023/09/08 17:36:41;;;;;;;8.27;7.38;;;23.90;75.70;;;;;;10382572;28;20034;-58
2023/09/08 17:41:42;;;;;;;8.32;6.90;;;23.90;74.30;;;;;;10383869;28;20037;-58
2023/09/08 17:46:42;;;;;;;9.80;7.13;;;23.90;74.30;;;;;;10392308;28;20029;-58
2023/09/08 17:51:43;;;;;;;9.60;7.63;;;23.90;76.00;;;;;;10388641;28;20042;-59
2023/09/08 17:56:44;;;;;;;12.35;7.95;;;24.00;76.20;;;;;;10390734;28;20045;-59
2023/09/08 18:01:45;;;;;;;11.57;8.68;;;24.00;76.20;;;;;;10394739;28;20489;-58
2023/09/08 18:06:45;;;;;;;9.25;8.25;;;24.00;76.40;;;;;;10384604;28;20080;-58
2023/09/08 18:11:47;;;;;;;13.75;8.75;;;24.00;76.40;;;;;;10379223;28;20022;-58
2023/09/08 18:16:49;;;;;;;9.45;8.57;;;24.00;76.70;;;;;;10389447;28;20054;-58
2023/09/08 18:21:50;;;;;;;8.70;7.75;;;24.00;76.50;;;;;;10393372;28;20129;-58
2023/09/08 18:26:51;;;;;;;8.73;7.90;;;23.90;75.40;;;;;;10396708;28;20033;-58
2023/09/08 18:31:51;;;;;;;11.90;7.72;;;23.90;75.50;;;;;;10400501;28;20052;-58
2023/09/08 18:36:52;;;;;;;9.20;7.55;;;23.80;75.60;;;;;;10383638;28;20045;-58
2023/09/08 18:41:53;;;;;;;9.45;7.63;;;23.80;75.90;;;;;;10380302;28;20500;-58
2023/09/08 18:46:54;;;;;;;7.85;7.15;;;23.70;75.90;;;;;;10387293;28;20026;-58
2023/09/08 18:51:54;;;;;;;7.75;6.95;;;23.70;76.00;;;;;;10369543;28;20048;-57
2023/09/08 18:56:55;;;;;;;8.02;7.22;;;23.70;75.90;;;;;;10369135;28;20044;-57
2023/09/08 19:01:56;;;;;;;9.63;7.93;;;23.70;75.80;;;;;;10372452;28;20052;-56
2023/09/08 19:06:57;;;;;;;9.50;7.72;;;23.70;76.00;;;;;;10373181;28;20029;-58
2023/09/08 19:11:58;;;;;;;7.70;7.00;;;23.70;76.00;;;;;;10384601;28;20076;-58
2023/09/08 19:16:59;;;;;;;8.38;7.50;;;23.70;75.90;;;;;;10393974;28;20053;-56
2023/09/08 19:22:00;;;;;;;14.93;8.02;;;23.70;75.90;;;;;;10401189;28;20057;-59
2023/09/08 19:27:01;;;;;;;9.48;8.25;;;23.70;76.60;;;;;;10370118;28;20448;-59
2023/09/08 19:32:02;;;;;;;9.50;8.60;;;23.80;76.40;;;;;;10399375;28;20340;-58
2023/09/08 19:37:03;;;;;;;8.75;7.95;;;23.70;76.10;;;;;;10366952;28;20095;-57
2023/09/08 19:42:04;;;;;;;8.25;7.45;;;23.70;76.00;;;;;;10370536;28;20121;-59
2023/09/08 19:47:04;;;;;;;8.52;7.60;;;23.60;76.20;;;;;;10400915;28;20515;-60
2023/09/08 19:52:06;;;;;;;8.98;7.75;;;23.70;76.30;;;;;;10411408;28;20079;-59
2023/09/08 19:57:07;;;;;;;8.55;7.65;;;23.70;76.50;;;;;;10410577;28;20041;-58
2023/09/08 20:02:09;;;;;;;8.30;7.55;;;23.70;76.40;;;;;;10411302;28;20651;-58
2023/09/08 20:07:10;;;;;;;9.32;8.43;;;23.60;76.30;;;;;;10401291;28;20041;-58
2023/09/08 20:12:10;;;;;;;8.68;7.78;;;23.60;76.30;;;;;;10374432;28;20135;-58
2023/09/08 20:17:11;;;;;;;8.77;7.97;;;23.60;76.30;;;;;;10392907;28;20065;-58
2023/09/08 20:22:12;;;;;;;8.27;7.55;;;23.60;76.10;;;;;;10402052;28;20026;-59
2023/09/08 20:27:12;;;;;;;8.32;7.47;;;23.60;76.00;;;;;;10369194;28;20030;-59
2023/09/08 20:32:14;;;;;;;8.07;7.22;;;23.60;76.10;;;;;;10388459;28;20028;-59
2023/09/08 20:37:15;;;;;;;8.35;7.55;;;23.60;76.10;;;;;;10371356;28;20041;-58
2023/09/08 20:42:15;;;;;;;7.70;7.00;;;23.60;76.10;;;;;;10379118;28;20025;-59
2023/09/08 20:47:16;;;;;;;8.68;7.93;;;23.60;76.00;;;;;;10368063;28;20048;-59
2023/09/08 20:52:17;;;;;;;8.85;7.95;;;23.60;76.00;;;;;;10368328;28;20358;-59
2023/09/08 20:57:18;;;;;;;9.38;7.35;;;23.60;76.00;;;;;;10367758;28;20026;-59
2023/09/08 21:02:19;;;;;;;7.85;7.05;;;23.60;76.00;;;;;;10368591;28;20030;-59
2023/09/08 21:07:20;;;;;;;7.40;6.70;;;23.60;75.90;;;;;;10367654;28;20025;-59
2023/09/08 21:12:21;;;;;;;8.20;7.40;;;23.60;75.90;;;;;;10368062;28;20030;-59
2023/09/08 21:17:21;;;;;;;8.20;7.47;;;23.60;75.80;;;;;;10393060;28;20036;-59
2023/09/08 21:22:22;;;;;;;8.70;7.90;;;23.60;75.90;;;;;;10371823;28;20646;-59
2023/09/08 21:27:23;;;;;;;7.53;6.70;;;23.60;75.90;;;;;;10367160;28;20038;-59
2023/09/08 21:32:24;;;;;;;8.10;7.40;;;23.60;75.80;;;;;;10391952;28;20651;-59
2023/09/08 21:37:24;;;;;;;8.68;7.68;;;23.60;75.80;;;;;;10375130;28;20095;-59
2023/09/08 21:42:25;;;;;;;7.82;7.13;;;23.60;75.80;;;;;;10375784;28;20045;-57
2023/09/08 21:47:30;;;;;;;7.95;7.15;;;23.60;75.80;;;;;;10374974;28;20030;-59
2023/09/08 21:52:31;;;;;;;8.18;7.38;;;23.60;75.70;;;;;;10375377;28;20073;-57
2023/09/08 21:57:31;;;;;;;8.05;7.35;;;23.60;75.70;;;;;;10374696;28;20381;-59
2023/09/08 22:02:32;;;;;;;9.32;8.43;;;23.60;75.70;;;;;;10374318;28;20025;-58
2023/09/08 22:07:33;;;;;;;7.50;6.80;;;23.60;75.70;;;;;;10373393;28;20045;-59
2023/09/08 22:12:33;;;;;;;9.45;8.65;;;23.60;75.70;;;;;;10374144;28;20149;-59
2023/09/08 22:17:34;;;;;;;8.25;7.47;;;23.60;75.60;;;;;;10386474;28;20033;-58
2023/09/08 22:22:35;;;;;;;8.23;7.43;;;23.60;75.60;;;;;;10373148;28;20037;-59
2023/09/08 22:27:38;;;;;;;8.30;7.45;;;23.60;75.60;;;;;;10373131;28;20499;-58
2023/09/08 22:32:38;;;;;;;8.57;7.78;;;23.60;75.60;;;;;;10409371;28;20105;-59
2023/09/08 22:37:39;;;;;;;8.18;7.38;;;23.60;75.50;;;;;;10414015;28;20021;-58
2023/09/08 22:42:40;;;;;;;8.43;7.63;;;23.50;75.50;;;;;;10413472;28;20033;-58
2023/09/08 22:47:40;;;;;;;9.63;8.73;;;23.60;75.60;;;;;;10412153;28;20107;-59
2023/09/08 22:52:41;;;;;;;8.00;7.30;;;23.50;75.50;;;;;;10378022;28;20033;-58
2023/09/08 22:57:42;;;;;;;7.18;6.57;;;23.50;75.50;;;;;;10381743;28;20381;-59
2023/09/08 23:02:45;;;;;;;7.60;6.90;;;23.50;75.50;;;;;;10375805;28;20029;-58
2023/09/08 23:07:46;;;;;;;7.68;6.97;;;23.50;75.50;;;;;;10371361;28;20121;-58
2023/09/08 23:12:47;;;;;;;7.80;7.10;;;23.50;75.40;;;;;;10371667;28;20042;-59
2023/09/08 23:17:47;;;;;;;7.70;7.00;;;23.50;75.40;;;;;;10400099;28;20034;-58
2023/09/08 23:22:48;;;;;;;9.88;8.43;;;23.50;75.40;;;;;;10400238;28;20044;-59
2023/09/08 23:27:49;;;;;;;8.48;7.68;;;23.50;75.40;;;;;;10373204;28;20045;-59
2023/09/08 23:32:49;;;;;;;8.43;7.63;;;23.50;75.40;;;;;;10387459;28;20018;-58
2023/09/08 23:37:50;;;;;;;7.68;6.97;;;23.50;75.30;;;;;;10370334;28;20030;-57
2023/09/08 23:42:51;;;;;;;7.20;6.60;;;23.50;75.30;;;;;;10370436;28;20026;-58
2023/09/08 23:47:52;;;;;;;8.45;7.10;;;23.50;75.20;;;;;;10369841;28;20377;-58
2023/09/08 23:52:53;;;;;;;6.78;6.18;;;23.50;75.20;;;;;;10369354;28;20026;-58
2023/09/08 23:57:53;;;;;;;7.88;7.13;;;23.50;75.20;;;;;;10369620;28;20041;-58
